sensor_id;sensor_type;location;lat;lon;timestamp;temperature;humidity
33673;DHT22;20011;51.510;9.942;2023-02-07T00:01:26;3.90;96.60
33673;DHT22;20011;51.510;9.942;2023-02-07T00:06:30;3.90;96.60
33673;DHT22;20011;51.510;9.942;2023-02-07T00:09:00;3.90;96.70
33673;DHT22;20011;51.510;9.942;2023-02-07T00:13:57;3.90;96.90
33673;DHT22;20011;51.510;9.942;2023-02-07T00:16:25;3.90;96.80
33673;DHT22;20011;51.510;9.942;2023-02-07T00:21:26;3.90;96.90
33673;DHT22;20011;51.510;9.942;2023-02-07T00:26:22;3.90;97.00
33673;DHT22;20011;51.510;9.942;2023-02-07T00:28:52;3.90;96.90
33673;DHT22;20011;51.510;9.942;2023-02-07T00:31:22;3.90;96.90
33673;DHT22;20011;51.510;9.942;2023-02-07T00:33:49;4.60;97.60
33673;DHT22;20011;51.510;9.942;2023-02-07T00:36:20;3.90;96.80
33673;DHT22;20011;51.510;9.942;2023-02-07T00:38:56;3.80;96.40
33673;DHT22;20011;51.510;9.942;2023-02-07T00:53:44;3.70;96.00
33673;DHT22;20011;51.510;9.942;2023-02-07T00:58:38;3.60;96.20
33673;DHT22;20011;51.510;9.942;2023-02-07T01:01:05;3.10;96.60
33673;DHT22;20011;51.510;9.942;2023-02-07T01:06:02;3.50;96.30
33673;DHT22;20011;51.510;9.942;2023-02-07T01:11:04;3.50;96.20
33673;DHT22;20011;51.510;9.942;2023-02-07T01:23:24;3.40;96.50
33673;DHT22;20011;51.510;9.942;2023-02-07T01:43:16;3.40;96.60
33673;DHT22;20011;51.510;9.942;2023-02-07T01:48:16;3.40;97.20
33673;DHT22;20011;51.510;9.942;2023-02-07T01:50:48;3.30;97.20
33673;DHT22;20011;51.510;9.942;2023-02-07T01:53:22;3.40;97.30
33673;DHT22;20011;51.510;9.942;2023-02-07T01:55:54;3.40;97.60
33673;DHT22;20011;51.510;9.942;2023-02-07T02:16:25;3.30;97.50
33673;DHT22;20011;51.510;9.942;2023-02-07T02:35:46;3.10;97.60
33673;DHT22;20011;51.510;9.942;2023-02-07T02:38:25;3.10;97.40
33673;DHT22;20011;51.510;9.942;2023-02-07T02:41:12;3.00;97.70
33673;DHT22;20011;51.510;9.942;2023-02-07T02:46:39;3.00;97.70
33673;DHT22;20011;51.510;9.942;2023-02-07T02:49:10;2.90;97.50
33673;DHT22;20011;51.510;9.942;2023-02-07T02:54:29;2.80;97.70
33673;DHT22;20011;51.510;9.942;2023-02-07T03:06:06;2.70;97.60
33673;DHT22;20011;51.510;9.942;2023-02-07T03:13:50;2.70;97.50
33673;DHT22;20011;51.510;9.942;2023-02-07T03:19:38;2.60;97.60
33673;DHT22;20011;51.510;9.942;2023-02-07T03:22:11;2.60;97.40
33673;DHT22;20011;51.510;9.942;2023-02-07T03:24:50;4.10;98.30
33673;DHT22;20011;51.510;9.942;2023-02-07T03:27:20;2.60;97.40
33673;DHT22;20011;51.510;9.942;2023-02-07T03:29:53;2.60;97.60
33673;DHT22;20011;51.510;9.942;2023-02-07T03:32:29;2.60;97.40
33673;DHT22;20011;51.510;9.942;2023-02-07T03:37:40;2.50;97.30
33673;DHT22;20011;51.510;9.942;2023-02-07T03:40:09;2.50;97.40
33673;DHT22;20011;51.510;9.942;2023-02-07T03:42:50;2.50;97.10
33673;DHT22;20011;51.510;9.942;2023-02-07T03:45:20;2.50;97.10
33673;DHT22;20011;51.510;9.942;2023-02-07T04:15:02;2.10;98.20
33673;DHT22;20011;51.510;9.942;2023-02-07T04:22:28;2.10;98.00
33673;DHT22;20011;51.510;9.942;2023-02-07T04:42:12;2.10;98.10
33673;DHT22;20011;51.510;9.942;2023-02-07T05:04:18;2.00;98.50
33673;DHT22;20011;51.510;9.942;2023-02-07T05:14:12;1.90;98.30
33673;DHT22;20011;51.510;9.942;2023-02-07T05:16:47;1.90;98.30
33673;DHT22;20011;51.510;9.942;2023-02-07T05:19:21;1.90;98.10
33673;DHT22;20011;51.510;9.942;2023-02-07T05:21:51;1.90;98.10
33673;DHT22;20011;51.510;9.942;2023-02-07T05:40:29;1.90;98.20
33673;DHT22;20011;51.510;9.942;2023-02-07T05:46:04;1.80;98.20
33673;DHT22;20011;51.510;9.942;2023-02-07T05:51:14;1.90;98.40
33673;DHT22;20011;51.510;9.942;2023-02-07T05:54:10;1.80;98.10
33673;DHT22;20011;51.510;9.942;2023-02-07T05:56:43;1.90;98.30
33673;DHT22;20011;51.510;9.942;2023-02-07T05:59:17;1.90;98.10
33673;DHT22;20011;51.510;9.942;2023-02-07T06:04:32;1.80;97.80
33673;DHT22;20011;51.510;9.942;2023-02-07T06:12:28;1.70;98.20
33673;DHT22;20011;51.510;9.942;2023-02-07T06:14:59;2.40;98.70
33673;DHT22;20011;51.510;9.942;2023-02-07T06:17:29;1.90;99.00
33673;DHT22;20011;51.510;9.942;2023-02-07T06:27:58;1.60;98.30
33673;DHT22;20011;51.510;9.942;2023-02-07T06:38:16;1.60;98.50
33673;DHT22;20011;51.510;9.942;2023-02-07T06:51:47;1.60;98.40
33673;DHT22;20011;51.510;9.942;2023-02-07T06:59:20;1.60;98.30
33673;DHT22;20011;51.510;9.942;2023-02-07T07:02:02;1.60;98.00
33673;DHT22;20011;51.510;9.942;2023-02-07T07:22:25;1.50;98.40
33673;DHT22;20011;51.510;9.942;2023-02-07T07:24:55;1.50;98.40
33673;DHT22;20011;51.510;9.942;2023-02-07T07:35:05;1.50;98.70
33673;DHT22;20011;51.510;9.942;2023-02-07T08:00:11;1.40;99.90
33673;DHT22;20011;51.510;9.942;2023-02-07T08:10:16;1.50;99.00
33673;DHT22;20011;51.510;9.942;2023-02-07T08:15:16;1.50;99.90
33673;DHT22;20011;51.510;9.942;2023-02-07T08:20:24;1.60;98.80
33673;DHT22;20011;51.510;9.942;2023-02-07T08:23:00;1.70;98.50
33673;DHT22;20011;51.510;9.942;2023-02-07T08:33:15;1.80;98.30
33673;DHT22;20011;51.510;9.942;2023-02-07T08:43:19;1.80;98.30
33673;DHT22;20011;51.510;9.942;2023-02-07T08:46:06;1.90;98.30
33673;DHT22;20011;51.510;9.942;2023-02-07T08:56:34;1.90;97.80
33673;DHT22;20011;51.510;9.942;2023-02-07T08:59:15;2.00;97.60
33673;DHT22;20011;51.510;9.942;2023-02-07T09:19:35;2.00;97.70
33673;DHT22;20011;51.510;9.942;2023-02-07T09:22:03;2.10;97.60
33673;DHT22;20011;51.510;9.942;2023-02-07T09:24:30;2.00;97.60
33673;DHT22;20011;51.510;9.942;2023-02-07T09:26:57;3.70;98.40
33673;DHT22;20011;51.510;9.942;2023-02-07T09:29:24;4.40;97.60
33673;DHT22;20011;51.510;9.942;2023-02-07T09:31:51;2.10;97.00
33673;DHT22;20011;51.510;9.942;2023-02-07T09:34:18;2.20;97.10
33673;DHT22;20011;51.510;9.942;2023-02-07T09:36:45;2.20;97.00
33673;DHT22;20011;51.510;9.942;2023-02-07T09:39:12;2.50;97.00
33673;DHT22;20011;51.510;9.942;2023-02-07T09:42:22;2.20;97.00
33673;DHT22;20011;51.510;9.942;2023-02-07T09:45:07;4.10;97.60
33673;DHT22;20011;51.510;9.942;2023-02-07T09:47:37;2.30;97.00
33673;DHT22;20011;51.510;9.942;2023-02-07T09:50:12;2.80;97.10
33673;DHT22;20011;51.510;9.942;2023-02-07T09:52:49;4.70;97.70
33673;DHT22;20011;51.510;9.942;2023-02-07T09:55:29;3.40;97.10
33673;DHT22;20011;51.510;9.942;2023-02-07T09:58:02;3.10;97.10
33673;DHT22;20011;51.510;9.942;2023-02-07T10:00:34;3.70;97.50
33673;DHT22;20011;51.510;9.942;2023-02-07T10:03:19;3.60;97.40
33673;DHT22;20011;51.510;9.942;2023-02-07T10:08:29;2.50;97.60
33673;DHT22;20011;51.510;9.942;2023-02-07T10:11:19;2.50;97.60
33673;DHT22;20011;51.510;9.942;2023-02-07T10:30:09;2.60;97.90
33673;DHT22;20011;51.510;9.942;2023-02-07T10:32:38;2.70;98.00
33673;DHT22;20011;51.510;9.942;2023-02-07T10:35:20;2.70;98.10
33673;DHT22;20011;51.510;9.942;2023-02-07T10:37:50;2.70;97.70
33673;DHT22;20011;51.510;9.942;2023-02-07T10:42:58;3.70;97.60
33673;DHT22;20011;51.510;9.942;2023-02-07T10:45:25;2.80;96.80
33673;DHT22;20011;51.510;9.942;2023-02-07T10:47:52;2.80;96.70
33673;DHT22;20011;51.510;9.942;2023-02-07T10:50:21;3.00;96.50
33673;DHT22;20011;51.510;9.942;2023-02-07T10:52:56;2.90;96.60
33673;DHT22;20011;51.510;9.942;2023-02-07T10:55:42;5.30;97.80
33673;DHT22;20011;51.510;9.942;2023-02-07T10:58:16;2.90;97.30
33673;DHT22;20011;51.510;9.942;2023-02-07T11:00:53;2.90;97.30
33673;DHT22;20011;51.510;9.942;2023-02-07T11:03:22;4.60;97.60
33673;DHT22;20011;51.510;9.942;2023-02-07T11:05:58;2.80;97.30
33673;DHT22;20011;51.510;9.942;2023-02-07T11:08:29;2.90;97.30
33673;DHT22;20011;51.510;9.942;2023-02-07T11:10:59;3.00;97.20
33673;DHT22;20011;51.510;9.942;2023-02-07T11:13:28;2.90;97.30
33673;DHT22;20011;51.510;9.942;2023-02-07T11:16:01;4.10;97.90
33673;DHT22;20011;51.510;9.942;2023-02-07T11:23:57;3.00;97.70
33673;DHT22;20011;51.510;9.942;2023-02-07T11:26:25;3.00;97.20
33673;DHT22;20011;51.510;9.942;2023-02-07T11:29:00;3.00;97.40
33673;DHT22;20011;51.510;9.942;2023-02-07T11:31:30;5.40;97.70
33673;DHT22;20011;51.510;9.942;2023-02-07T11:36:46;3.10;96.90
33673;DHT22;20011;51.510;9.942;2023-02-07T11:39:18;4.50;97.10
33673;DHT22;20011;51.510;9.942;2023-02-07T11:42:00;3.10;96.70
33673;DHT22;20011;51.510;9.942;2023-02-07T11:44:29;3.10;96.60
33673;DHT22;20011;51.510;9.942;2023-02-07T11:47:02;3.80;96.90
33673;DHT22;20011;51.510;9.942;2023-02-07T11:52:04;3.10;97.00
33673;DHT22;20011;51.510;9.942;2023-02-07T11:54:34;3.20;96.90
33673;DHT22;20011;51.510;9.942;2023-02-07T11:57:05;4.30;96.80
33673;DHT22;20011;51.510;9.942;2023-02-07T11:59:33;4.40;96.90
33673;DHT22;20011;51.510;9.942;2023-02-07T12:02:08;3.20;96.60
33673;DHT22;20011;51.510;9.942;2023-02-07T12:04:41;4.00;96.40
33673;DHT22;20011;51.510;9.942;2023-02-07T12:07:15;3.30;95.80
33673;DHT22;20011;51.510;9.942;2023-02-07T12:09:53;4.30;95.90
33673;DHT22;20011;51.510;9.942;2023-02-07T12:12:32;3.40;95.60
33673;DHT22;20011;51.510;9.942;2023-02-07T12:15:05;4.20;96.20
33673;DHT22;20011;51.510;9.942;2023-02-07T12:17:55;3.40;95.80
33673;DHT22;20011;51.510;9.942;2023-02-07T12:23:00;3.50;96.00
33673;DHT22;20011;51.510;9.942;2023-02-07T12:25:54;3.60;96.00
33673;DHT22;20011;51.510;9.942;2023-02-07T12:28:28;4.40;96.20
33673;DHT22;20011;51.510;9.942;2023-02-07T12:31:00;6.20;96.20
33673;DHT22;20011;51.510;9.942;2023-02-07T12:33:41;3.70;95.50
33673;DHT22;20011;51.510;9.942;2023-02-07T12:36:22;3.80;94.80
33673;DHT22;20011;51.510;9.942;2023-02-07T12:39:00;5.70;95.30
33673;DHT22;20011;51.510;9.942;2023-02-07T12:44:36;3.70;93.90
33673;DHT22;20011;51.510;9.942;2023-02-07T12:47:19;4.80;94.40
33673;DHT22;20011;51.510;9.942;2023-02-07T12:55:23;3.90;94.90
33673;DHT22;20011;51.510;9.942;2023-02-07T13:00:53;3.90;94.30
33673;DHT22;20011;51.510;9.942;2023-02-07T13:12:39;4.10;93.30
33673;DHT22;20011;51.510;9.942;2023-02-07T13:15:38;4.10;93.30
33673;DHT22;20011;51.510;9.942;2023-02-07T13:18:15;4.10;93.10
33673;DHT22;20011;51.510;9.942;2023-02-07T13:23:27;4.10;91.90
33673;DHT22;20011;51.510;9.942;2023-02-07T13:26:01;5.20;92.50
33673;DHT22;20011;51.510;9.942;2023-02-07T13:28:40;4.10;92.30
33673;DHT22;20011;51.510;9.942;2023-02-07T13:31:13;4.20;92.50
33673;DHT22;20011;51.510;9.942;2023-02-07T13:33:42;4.10;92.10
33673;DHT22;20011;51.510;9.942;2023-02-07T13:36:34;5.00;92.60
33673;DHT22;20011;51.510;9.942;2023-02-07T13:42:10;4.20;91.60
33673;DHT22;20011;51.510;9.942;2023-02-07T13:45:02;4.20;91.10
33673;DHT22;20011;51.510;9.942;2023-02-07T13:55:26;5.30;91.60
33673;DHT22;20011;51.510;9.942;2023-02-07T13:57:56;4.30;91.50
33673;DHT22;20011;51.510;9.942;2023-02-07T14:03:27;5.00;91.70
33673;DHT22;20011;51.510;9.942;2023-02-07T14:06:15;6.20;91.40
33673;DHT22;20011;51.510;9.942;2023-02-07T14:08:43;4.30;91.00
33673;DHT22;20011;51.510;9.942;2023-02-07T14:11:26;5.20;91.60
33673;DHT22;20011;51.510;9.942;2023-02-07T14:14:04;4.30;91.40
33673;DHT22;20011;51.510;9.942;2023-02-07T14:17:05;4.40;91.60
33673;DHT22;20011;51.510;9.942;2023-02-07T14:22:24;5.50;91.50
33673;DHT22;20011;51.510;9.942;2023-02-07T14:27:34;5.30;91.40
33673;DHT22;20011;51.510;9.942;2023-02-07T14:43:16;4.30;90.00
33673;DHT22;20011;51.510;9.942;2023-02-07T14:48:52;4.30;89.10
33673;DHT22;20011;51.510;9.942;2023-02-07T14:51:31;4.40;88.90
33673;DHT22;20011;51.510;9.942;2023-02-07T14:54:06;4.30;87.90
33673;DHT22;20011;51.510;9.942;2023-02-07T14:57:06;5.50;88.50
33673;DHT22;20011;51.510;9.942;2023-02-07T14:59:44;5.40;88.90
33673;DHT22;20011;51.510;9.942;2023-02-07T15:03:09;4.30;88.40
33673;DHT22;20011;51.510;9.942;2023-02-07T15:06:01;4.30;89.20
33673;DHT22;20011;51.510;9.942;2023-02-07T15:08:30;4.30;90.10
33673;DHT22;20011;51.510;9.942;2023-02-07T15:11:10;4.30;90.30
33673;DHT22;20011;51.510;9.942;2023-02-07T15:13:42;4.30;90.10
33673;DHT22;20011;51.510;9.942;2023-02-07T15:16:20;4.30;90.80
33673;DHT22;20011;51.510;9.942;2023-02-07T15:21:32;4.90;91.00
33673;DHT22;20011;51.510;9.942;2023-02-07T15:26:40;4.30;91.00
33673;DHT22;20011;51.510;9.942;2023-02-07T15:29:23;4.30;91.40
33673;DHT22;20011;51.510;9.942;2023-02-07T15:31:52;4.30;91.10
33673;DHT22;20011;51.510;9.942;2023-02-07T15:34:25;5.90;91.20
33673;DHT22;20011;51.510;9.942;2023-02-07T15:37:13;6.10;91.10
33673;DHT22;20011;51.510;9.942;2023-02-07T15:39:41;5.10;91.50
33673;DHT22;20011;51.510;9.942;2023-02-07T15:42:16;4.90;91.20
33673;DHT22;20011;51.510;9.942;2023-02-07T15:44:49;6.60;91.80
33673;DHT22;20011;51.510;9.942;2023-02-07T15:47:31;4.20;91.40
33673;DHT22;20011;51.510;9.942;2023-02-07T15:50:20;4.20;91.10
33673;DHT22;20011;51.510;9.942;2023-02-07T15:52:55;5.90;91.60
33673;DHT22;20011;51.510;9.942;2023-02-07T15:55:24;6.00;92.00
33673;DHT22;20011;51.510;9.942;2023-02-07T15:57:55;4.20;92.00
33673;DHT22;20011;51.510;9.942;2023-02-07T16:00:26;5.30;92.20
33673;DHT22;20011;51.510;9.942;2023-02-07T16:03:04;5.90;92.20
33673;DHT22;20011;51.510;9.942;2023-02-07T16:05:34;5.60;92.00
33673;DHT22;20011;51.510;9.942;2023-02-07T16:08:25;4.10;91.40
33673;DHT22;20011;51.510;9.942;2023-02-07T16:10:52;6.00;92.10
33673;DHT22;20011;51.510;9.942;2023-02-07T16:13:20;4.10;91.80
33673;DHT22;20011;51.510;9.942;2023-02-07T16:15:55;5.10;91.70
33673;DHT22;20011;51.510;9.942;2023-02-07T16:18:42;5.60;92.10
33673;DHT22;20011;51.510;9.942;2023-02-07T16:21:23;3.90;92.50
33673;DHT22;20011;51.510;9.942;2023-02-07T16:23:59;3.90;92.70
33673;DHT22;20011;51.510;9.942;2023-02-07T16:26:30;3.90;92.90
33673;DHT22;20011;51.510;9.942;2023-02-07T16:28:57;3.90;93.40
33673;DHT22;20011;51.510;9.942;2023-02-07T16:31:24;3.80;93.50
33673;DHT22;20011;51.510;9.942;2023-02-07T16:33:51;5.50;93.50
33673;DHT22;20011;51.510;9.942;2023-02-07T16:36:18;3.90;92.30
33673;DHT22;20011;51.510;9.942;2023-02-07T16:38:45;4.80;92.70
33673;DHT22;20011;51.510;9.942;2023-02-07T16:41:26;3.80;92.90
33673;DHT22;20011;51.510;9.942;2023-02-07T16:44:01;4.30;93.20
33673;DHT22;20011;51.510;9.942;2023-02-07T16:46:30;3.70;92.10
33673;DHT22;20011;51.510;9.942;2023-02-07T16:48:57;4.20;92.40
33673;DHT22;20011;51.510;9.942;2023-02-07T16:51:25;3.70;92.50
33673;DHT22;20011;51.510;9.942;2023-02-07T16:53:52;4.20;92.20
33673;DHT22;20011;51.510;9.942;2023-02-07T16:56:24;3.60;92.60
33673;DHT22;20011;51.510;9.942;2023-02-07T16:58:52;4.10;93.00
33673;DHT22;20011;51.510;9.942;2023-02-07T17:01:21;3.40;93.10
33673;DHT22;20011;51.510;9.942;2023-02-07T17:03:48;3.40;93.20
33673;DHT22;20011;51.510;9.942;2023-02-07T17:06:16;3.30;92.90
33673;DHT22;20011;51.510;9.942;2023-02-07T17:08:44;4.40;93.40
33673;DHT22;20011;51.510;9.942;2023-02-07T17:11:20;4.00;93.50
33673;DHT22;20011;51.510;9.942;2023-02-07T17:13:52;3.60;93.50
33673;DHT22;20011;51.510;9.942;2023-02-07T17:16:20;4.00;94.10
33673;DHT22;20011;51.510;9.942;2023-02-07T17:18:47;3.20;94.00
33673;DHT22;20011;51.510;9.942;2023-02-07T17:21:14;5.30;94.70
33673;DHT22;20011;51.510;9.942;2023-02-07T17:23:43;3.10;94.40
33673;DHT22;20011;51.510;9.942;2023-02-07T17:26:19;3.10;94.30
33673;DHT22;20011;51.510;9.942;2023-02-07T17:28:49;3.10;94.10
33673;DHT22;20011;51.510;9.942;2023-02-07T17:31:16;4.30;94.90
33673;DHT22;20011;51.510;9.942;2023-02-07T17:33:43;3.20;94.90
33673;DHT22;20011;51.510;9.942;2023-02-07T17:36:14;3.00;94.90
33673;DHT22;20011;51.510;9.942;2023-02-07T17:38:42;2.90;94.20
33673;DHT22;20011;51.510;9.942;2023-02-07T17:41:13;2.90;94.40
33673;DHT22;20011;51.510;9.942;2023-02-07T17:43:40;2.80;95.20
33673;DHT22;20011;51.510;9.942;2023-02-07T17:46:20;4.00;95.60
33673;DHT22;20011;51.510;9.942;2023-02-07T17:48:48;2.80;95.10
33673;DHT22;20011;51.510;9.942;2023-02-07T17:51:15;2.70;94.90
33673;DHT22;20011;51.510;9.942;2023-02-07T17:53:43;2.80;95.70
33673;DHT22;20011;51.510;9.942;2023-02-07T17:56:21;3.30;96.40
33673;DHT22;20011;51.510;9.942;2023-02-07T17:58:52;4.60;97.40
33673;DHT22;20011;51.510;9.942;2023-02-07T18:01:20;2.70;97.10
33673;DHT22;20011;51.510;9.942;2023-02-07T18:03:49;2.50;97.30
33673;DHT22;20011;51.510;9.942;2023-02-07T18:06:18;2.50;97.60
33673;DHT22;20011;51.510;9.942;2023-02-07T18:08:46;2.50;97.70
33673;DHT22;20011;51.510;9.942;2023-02-07T18:11:14;2.50;97.70
33673;DHT22;20011;51.510;9.942;2023-02-07T18:13:42;4.20;98.10
33673;DHT22;20011;51.510;9.942;2023-02-07T18:16:13;2.50;97.40
33673;DHT22;20011;51.510;9.942;2023-02-07T18:18:40;3.80;98.00
33673;DHT22;20011;51.510;9.942;2023-02-07T18:21:08;2.50;97.70
33673;DHT22;20011;51.510;9.942;2023-02-07T18:23:37;2.30;97.70
33673;DHT22;20011;51.510;9.942;2023-02-07T18:26:04;2.30;97.80
33673;DHT22;20011;51.510;9.942;2023-02-07T18:28:31;2.40;97.60
33673;DHT22;20011;51.510;9.942;2023-02-07T18:30:58;4.10;98.50
33673;DHT22;20011;51.510;9.942;2023-02-07T18:33:25;4.00;98.80
33673;DHT22;20011;51.510;9.942;2023-02-07T18:35:56;2.20;98.30
33673;DHT22;20011;51.510;9.942;2023-02-07T18:38:23;2.20;98.60
33673;DHT22;20011;51.510;9.942;2023-02-07T18:40:50;3.00;98.90
33673;DHT22;20011;51.510;9.942;2023-02-07T18:43:17;3.00;98.90
33673;DHT22;20011;51.510;9.942;2023-02-07T18:45:44;2.30;98.80
33673;DHT22;20011;51.510;9.942;2023-02-07T18:48:11;2.20;99.00
33673;DHT22;20011;51.510;9.942;2023-02-07T18:50:43;2.20;99.30
33673;DHT22;20011;51.510;9.942;2023-02-07T18:53:11;2.20;99.40
33673;DHT22;20011;51.510;9.942;2023-02-07T18:55:38;2.30;99.70
33673;DHT22;20011;51.510;9.942;2023-02-07T18:58:05;2.20;99.60
33673;DHT22;20011;51.510;9.942;2023-02-07T19:00:32;2.00;99.20
33673;DHT22;20011;51.510;9.942;2023-02-07T19:02:59;3.60;99.90
33673;DHT22;20011;51.510;9.942;2023-02-07T19:05:26;3.00;99.90
33673;DHT22;20011;51.510;9.942;2023-02-07T19:10:21;2.20;99.30
33673;DHT22;20011;51.510;9.942;2023-02-07T19:12:49;2.10;99.00
33673;DHT22;20011;51.510;9.942;2023-02-07T19:15:16;2.00;98.50
33673;DHT22;20011;51.510;9.942;2023-02-07T19:17:43;2.10;98.50
33673;DHT22;20011;51.510;9.942;2023-02-07T19:20:10;2.20;98.50
33673;DHT22;20011;51.510;9.942;2023-02-07T19:22:37;2.20;98.60
33673;DHT22;20011;51.510;9.942;2023-02-07T19:25:04;2.30;98.70
33673;DHT22;20011;51.510;9.942;2023-02-07T19:27:32;2.30;98.30
33673;DHT22;20011;51.510;9.942;2023-02-07T19:29:59;2.50;98.10
33673;DHT22;20011;51.510;9.942;2023-02-07T19:32:26;2.20;97.80
33673;DHT22;20011;51.510;9.942;2023-02-07T19:34:53;2.40;97.90
33673;DHT22;20011;51.510;9.942;2023-02-07T19:37:20;5.70;98.50
33673;DHT22;20011;51.510;9.942;2023-02-07T19:45:03;2.20;98.20
33673;DHT22;20011;51.510;9.942;2023-02-07T19:50:03;2.00;98.90
33673;DHT22;20011;51.510;9.942;2023-02-07T19:55:22;1.90;99.50
33673;DHT22;20011;51.510;9.942;2023-02-07T20:03:10;1.90;99.50
33673;DHT22;20011;51.510;9.942;2023-02-07T20:08:20;1.80;99.60
33673;DHT22;20011;51.510;9.942;2023-02-07T20:10:48;1.70;99.90
33673;DHT22;20011;51.510;9.942;2023-02-07T20:13:15;1.70;99.90
33673;DHT22;20011;51.510;9.942;2023-02-07T20:15:44;1.70;99.90
33673;DHT22;20011;51.510;9.942;2023-02-07T20:18:12;3.50;99.90
33673;DHT22;20011;51.510;9.942;2023-02-07T20:20:43;1.60;99.90
33673;DHT22;20011;51.510;9.942;2023-02-07T20:23:13;1.60;99.90
33673;DHT22;20011;51.510;9.942;2023-02-07T20:25:40;1.60;99.90
33673;DHT22;20011;51.510;9.942;2023-02-07T20:28:07;1.60;99.90
33673;DHT22;20011;51.510;9.942;2023-02-07T20:30:34;1.50;99.90
33673;DHT22;20011;51.510;9.942;2023-02-07T20:33:02;1.50;99.90
33673;DHT22;20011;51.510;9.942;2023-02-07T20:35:28;1.40;99.90
33673;DHT22;20011;51.510;9.942;2023-02-07T20:37:55;1.30;99.90
33673;DHT22;20011;51.510;9.942;2023-02-07T20:40:22;1.40;99.90
33673;DHT22;20011;51.510;9.942;2023-02-07T20:42:49;3.60;99.90
33673;DHT22;20011;51.510;9.942;2023-02-07T20:45:16;1.40;99.90
33673;DHT22;20011;51.510;9.942;2023-02-07T20:47:43;1.50;99.90
33673;DHT22;20011;51.510;9.942;2023-02-07T20:50:10;1.40;99.90
33673;DHT22;20011;51.510;9.942;2023-02-07T20:52:37;1.40;99.90
33673;DHT22;20011;51.510;9.942;2023-02-07T20:55:04;1.40;99.90
33673;DHT22;20011;51.510;9.942;2023-02-07T20:57:31;1.50;99.90
33673;DHT22;20011;51.510;9.942;2023-02-07T20:59:58;1.50;99.90
33673;DHT22;20011;51.510;9.942;2023-02-07T21:02:25;1.50;99.90
33673;DHT22;20011;51.510;9.942;2023-02-07T21:04:52;2.10;99.90
33673;DHT22;20011;51.510;9.942;2023-02-07T21:07:19;1.50;99.90
33673;DHT22;20011;51.510;9.942;2023-02-07T21:09:46;2.30;99.90
33673;DHT22;20011;51.510;9.942;2023-02-07T21:12:15;3.10;99.90
33673;DHT22;20011;51.510;9.942;2023-02-07T21:14:42;1.30;99.90
33673;DHT22;20011;51.510;9.942;2023-02-07T21:19:37;1.40;99.90
33673;DHT22;20011;51.510;9.942;2023-02-07T21:22:06;1.50;99.90
33673;DHT22;20011;51.510;9.942;2023-02-07T21:27:00;1.30;99.90
33673;DHT22;20011;51.510;9.942;2023-02-07T21:29:28;1.20;99.90
33673;DHT22;20011;51.510;9.942;2023-02-07T21:31:55;1.30;99.90
33673;DHT22;20011;51.510;9.942;2023-02-07T21:34:22;1.30;99.90
33673;DHT22;20011;51.510;9.942;2023-02-07T21:36:51;1.20;99.90
33673;DHT22;20011;51.510;9.942;2023-02-07T21:39:18;4.00;99.90
33673;DHT22;20011;51.510;9.942;2023-02-07T21:41:46;2.90;99.90
33673;DHT22;20011;51.510;9.942;2023-02-07T21:44:14;1.80;99.90
33673;DHT22;20011;51.510;9.942;2023-02-07T21:46:42;3.20;99.90
33673;DHT22;20011;51.510;9.942;2023-02-07T21:49:13;1.10;99.90
33673;DHT22;20011;51.510;9.942;2023-02-07T21:51:43;1.10;99.90
33673;DHT22;20011;51.510;9.942;2023-02-07T21:54:11;1.20;99.90
33673;DHT22;20011;51.510;9.942;2023-02-07T21:56:40;1.20;99.90
33673;DHT22;20011;51.510;9.942;2023-02-07T21:59:11;1.10;99.90
33673;DHT22;20011;51.510;9.942;2023-02-07T22:01:38;1.30;99.90
33673;DHT22;20011;51.510;9.942;2023-02-07T22:04:06;1.30;99.90
33673;DHT22;20011;51.510;9.942;2023-02-07T22:06:36;1.40;99.90
33673;DHT22;20011;51.510;9.942;2023-02-07T22:11:33;1.40;99.80
33673;DHT22;20011;51.510;9.942;2023-02-07T22:14:01;3.70;99.90
33673;DHT22;20011;51.510;9.942;2023-02-07T22:16:29;4.00;99.90
33673;DHT22;20011;51.510;9.942;2023-02-07T22:18:57;3.30;99.90
33673;DHT22;20011;51.510;9.942;2023-02-07T22:21:28;2.80;99.90
33673;DHT22;20011;51.510;9.942;2023-02-07T22:23:55;1.10;99.90
33673;DHT22;20011;51.510;9.942;2023-02-07T22:26:23;1.10;99.90
33673;DHT22;20011;51.510;9.942;2023-02-07T22:28:50;1.00;99.90
33673;DHT22;20011;51.510;9.942;2023-02-07T22:31:23;1.00;99.90
33673;DHT22;20011;51.510;9.942;2023-02-07T22:33:52;1.10;99.90
33673;DHT22;20011;51.510;9.942;2023-02-07T22:36:23;1.00;99.90
33673;DHT22;20011;51.510;9.942;2023-02-07T22:38:50;2.20;99.90
33673;DHT22;20011;51.510;9.942;2023-02-07T22:41:18;1.00;99.90
33673;DHT22;20011;51.510;9.942;2023-02-07T22:43:45;0.90;99.90
33673;DHT22;20011;51.510;9.942;2023-02-07T22:46:15;1.10;99.90
33673;DHT22;20011;51.510;9.942;2023-02-07T22:48:42;0.90;99.90
33673;DHT22;20011;51.510;9.942;2023-02-07T22:51:29;1.10;99.90
33673;DHT22;20011;51.510;9.942;2023-02-07T22:54:03;1.00;99.90
33673;DHT22;20011;51.510;9.942;2023-02-07T22:56:32;1.20;99.90
33673;DHT22;20011;51.510;9.942;2023-02-07T22:58:59;1.00;99.90
33673;DHT22;20011;51.510;9.942;2023-02-07T23:01:31;1.10;99.90
33673;DHT22;20011;51.510;9.942;2023-02-07T23:04:06;4.30;99.90
33673;DHT22;20011;51.510;9.942;2023-02-07T23:06:33;1.00;99.90
33673;DHT22;20011;51.510;9.942;2023-02-07T23:09:00;0.90;99.90
33673;DHT22;20011;51.510;9.942;2023-02-07T23:11:27;1.50;99.90
33673;DHT22;20011;51.510;9.942;2023-02-07T23:13:54;0.90;99.90
33673;DHT22;20011;51.510;9.942;2023-02-07T23:16:25;0.80;99.90
33673;DHT22;20011;51.510;9.942;2023-02-07T23:18:54;0.70;99.90
33673;DHT22;20011;51.510;9.942;2023-02-07T23:21:25;0.80;99.90
33673;DHT22;20011;51.510;9.942;2023-02-07T23:23:53;2.90;99.90
33673;DHT22;20011;51.510;9.942;2023-02-07T23:26:23;0.70;99.90
33673;DHT22;20011;51.510;9.942;2023-02-07T23:28:51;0.60;99.90
33673;DHT22;20011;51.510;9.942;2023-02-07T23:31:19;2.00;99.90
33673;DHT22;20011;51.510;9.942;2023-02-07T23:33:47;0.60;99.90
33673;DHT22;20011;51.510;9.942;2023-02-07T23:36:14;0.70;99.90
33673;DHT22;20011;51.510;9.942;2023-02-07T23:38:44;0.60;99.90
33673;DHT22;20011;51.510;9.942;2023-02-07T23:41:12;0.50;99.90
33673;DHT22;20011;51.510;9.942;2023-02-07T23:43:39;0.90;99.90
33673;DHT22;20011;51.510;9.942;2023-02-07T23:46:07;2.60;99.90
33673;DHT22;20011;51.510;9.942;2023-02-07T23:48:34;1.20;99.90
33673;DHT22;20011;51.510;9.942;2023-02-07T23:53:32;0.50;99.90
33673;DHT22;20011;51.510;9.942;2023-02-07T23:55:59;0.40;99.90
33673;DHT22;20011;51.510;9.942;2023-02-07T23:58:26;0.40;99.90
